createdAt,value
2022-11-10T00:02:00.504Z,42.25
2022-11-10T00:09:43.193Z,42.27
2022-11-10T00:17:15.373Z,42.15
2022-11-10T00:24:52.389Z,42.2
2022-11-10T00:32:31.712Z,42.3
2022-11-10T00:40:02.707Z,42.22
2022-11-10T00:47:32.521Z,42.15
2022-11-10T00:55:03.233Z,41.97
2022-11-10T01:02:41.928Z,41.97
2022-11-10T01:10:08.676Z,41.99
2022-11-10T01:17:44.356Z,42.06
2022-11-10T01:25:15.360Z,41.7
2022-11-10T01:32:51.412Z,41.88
2022-11-10T01:40:41.077Z,41.92
2022-11-10T01:48:27.553Z,42.14
2022-11-10T01:56:32.386Z,42.23
2022-11-10T02:04:43.713Z,42.14
2022-11-10T02:12:15.540Z,42
2022-11-10T02:20:05.200Z,42.22
2022-11-10T02:27:43.613Z,42.28
2022-11-10T02:35:26.166Z,42.33
2022-11-10T02:42:57.111Z,42.35
2022-11-10T02:50:42.049Z,42.34
2022-11-10T02:58:26.794Z,42.34
2022-11-10T03:06:02.330Z,42.39
2022-11-10T03:14:01.782Z,42.27
2022-11-10T03:21:24.632Z,42.45
2022-11-10T03:29:03.962Z,42.34
2022-11-10T03:36:18.336Z,42.32
2022-11-10T03:44:02.308Z,42.29
2022-11-10T03:51:24.909Z,42.35
2022-11-10T03:59:10.035Z,42.3
2022-11-10T04:06:38.248Z,42.42
2022-11-10T04:14:18.248Z,42.41
2022-11-10T04:21:47.492Z,42.42
2022-11-10T04:29:31.325Z,42.19
2022-11-10T04:37:01.107Z,42.46
2022-11-10T04:44:40.762Z,42.48
2022-11-10T04:52:32.690Z,42.55
2022-11-10T05:00:16.694Z,42.43
2022-11-10T05:07:53.051Z,42.18
2022-11-10T05:15:30.590Z,42.05
2022-11-10T05:23:17.031Z,41.95
2022-11-10T05:30:58.540Z,41.97
2022-11-10T05:38:44.639Z,42.09
2022-11-10T05:46:12.073Z,41.9
2022-11-10T05:53:52.660Z,42.17
2022-11-10T06:01:38.074Z,42.13
2022-11-10T06:09:20.645Z,42.19
2022-11-10T06:16:54.643Z,42.12
2022-11-10T06:23:51.197Z,41.91
2022-11-10T06:30:22.078Z,41.48
2022-11-10T06:36:57.209Z,41.21
2022-11-10T06:43:40.302Z,40.13
2022-11-10T06:50:10.742Z,39.7
2022-11-10T06:56:48.318Z,39.5
2022-11-10T07:03:21.228Z,39.09
2022-11-10T07:09:59.636Z,38.91
2022-11-10T07:16:47.622Z,38.76
2022-11-10T07:23:40.399Z,38.89
2022-11-10T07:30:08.390Z,39.07
2022-11-10T07:36:50.421Z,39.15
2022-11-10T07:43:17.715Z,39.23
2022-11-10T07:49:54.540Z,39.43
2022-11-10T07:56:22.190Z,39.53
2022-11-10T08:03:14.833Z,39.76
2022-11-10T08:09:55.192Z,39.84
2022-11-10T08:16:29.352Z,40.1
2022-11-10T08:23:04.879Z,40.5
2022-11-10T08:29:34.372Z,40.64
2022-11-10T08:36:14.626Z,40.64
2022-11-10T08:42:57.823Z,41
2022-11-10T08:49:52.836Z,41.16
2022-11-10T08:57:49.249Z,42.05
2022-11-10T09:05:32.747Z,42.25
2022-11-10T09:12:56.659Z,42.74
2022-11-10T09:19:40.369Z,42.58
2022-11-10T09:26:17.324Z,42.03
2022-11-10T09:33:08.090Z,41.89
2022-11-10T09:40:42.492Z,42.04
2022-11-10T09:49:00.836Z,42.24
2022-11-10T09:57:25.038Z,42.31
2022-11-10T10:05:34.846Z,42.48
2022-11-10T10:13:47.711Z,42.46
2022-11-10T10:22:13.109Z,42.51
2022-11-10T10:30:25.307Z,42.42
2022-11-10T10:38:22.508Z,43.01
2022-11-10T10:46:18.364Z,43.74
2022-11-10T10:54:29.876Z,42.93
2022-11-10T11:02:41.244Z,42.9
2022-11-10T11:10:40.306Z,42.91
2022-11-10T11:18:36.701Z,42.9
2022-11-10T11:26:58.384Z,42.79
2022-11-10T11:35:03.809Z,42.78
2022-11-10T11:43:26.828Z,42.74
2022-11-10T11:51:43.264Z,42.88
2022-11-10T12:00:10.745Z,42.68
2022-11-10T12:08:34.052Z,42.49
2022-11-10T12:16:53.302Z,42.64
2022-11-10T12:25:20.287Z,42.54
2022-11-10T12:33:41.212Z,42.41
2022-11-10T12:41:59.057Z,42.54
2022-11-10T12:50:16.408Z,42.63
2022-11-10T12:58:29.546Z,42.74
2022-11-10T13:06:51.274Z,42.64
2022-11-10T13:15:14.600Z,42.76
2022-11-10T13:23:20.783Z,42.66
2022-11-10T13:31:44.173Z,42.72
2022-11-10T13:40:07.916Z,42.7
2022-11-10T13:48:33.331Z,42.77
2022-11-10T13:57:17.509Z,42.9
2022-11-10T14:05:28.913Z,42.93
2022-11-10T14:13:55.018Z,42.95
2022-11-10T14:22:11.865Z,43.04
2022-11-10T14:30:26.916Z,43.07
2022-11-10T14:38:39.977Z,43.05
2022-11-10T14:46:50.079Z,42.99
2022-11-10T14:55:10.623Z,42.97
2022-11-10T15:03:27.392Z,42.86
2022-11-10T15:11:31.723Z,42.9
2022-11-10T15:19:28.016Z,43.05
2022-11-10T15:27:32.897Z,43.39
2022-11-10T15:35:26.541Z,43.37
2022-11-10T15:43:16.092Z,43.6
2022-11-10T15:51:07.989Z,43.5
2022-11-10T15:58:44.907Z,43.44
2022-11-10T16:06:37.748Z,43.61
2022-11-10T16:14:31.721Z,43.64
2022-11-10T16:22:06.799Z,43.51
2022-11-10T16:29:42.430Z,43.67
2022-11-10T16:37:19.605Z,43.62
2022-11-10T16:45:07.564Z,43.59
2022-11-10T16:53:00.156Z,43.67
2022-11-10T17:00:25.237Z,43.7
2022-11-10T17:07:56.926Z,43.73
2022-11-10T17:15:22.644Z,43.76
2022-11-10T17:23:01.061Z,43.58
2022-11-10T17:30:48.097Z,43.57
2022-11-10T17:38:13.974Z,43.44
2022-11-10T17:45:59.624Z,43.48
2022-11-10T17:53:35.753Z,43.46
2022-11-10T18:01:04.383Z,43.43
2022-11-10T18:08:41.990Z,43.49
2022-11-10T18:16:28.657Z,43.47
2022-11-10T18:23:58.398Z,43.47
2022-11-10T18:31:25.371Z,43.52
2022-11-10T18:39:03.963Z,43.5
2022-11-10T18:46:35.019Z,43.52
2022-11-10T18:54:14.680Z,43.51
2022-11-10T19:01:56.973Z,43.59
2022-11-10T19:09:17.811Z,43.58
2022-11-10T19:17:02.903Z,43.52
2022-11-10T19:24:54.245Z,43.57
2022-11-10T19:32:30.426Z,43.48
2022-11-10T19:40:06.843Z,43.54
2022-11-10T19:47:46.431Z,43.5
2022-11-10T19:55:40.053Z,43.51
2022-11-10T20:03:16.736Z,43.5
2022-11-10T20:10:56.213Z,43.6
2022-11-10T20:18:38.597Z,43.61
2022-11-10T20:26:14.182Z,43.53
2022-11-10T20:34:06.372Z,43.52
2022-11-10T20:41:48.003Z,43.59
2022-11-10T20:49:31.816Z,43.65
2022-11-10T20:57:25.155Z,43.55
2022-11-10T21:05:01.344Z,43.66
2022-11-10T21:12:42.957Z,43.6
2022-11-10T21:20:22.545Z,43.63
2022-11-10T21:28:08.100Z,43.57
2022-11-10T21:35:38.671Z,43.49
2022-11-10T21:43:17.318Z,43.56
2022-11-10T21:50:51.190Z,43.56
2022-11-10T21:58:40.334Z,43.5
2022-11-10T22:06:34.860Z,43.54
2022-11-10T22:14:08.289Z,43.52
2022-11-10T22:21:56.418Z,43.62
2022-11-10T22:29:37.249Z,43.52
2022-11-10T22:37:22.503Z,43.52
2022-11-10T22:44:59.190Z,43.54
2022-11-10T22:52:35.873Z,43.54
2022-11-10T22:59:56.504Z,43.62
2022-11-10T23:07:41.564Z,43.57
2022-11-10T23:15:13.468Z,43.58
2022-11-10T23:22:44.131Z,43.52
2022-11-10T23:30:23.801Z,43.33
2022-11-10T23:38:04.162Z,43.24
2022-11-10T23:46:06.253Z,43.25
2022-11-10T23:53:41.343Z,43.13
